Time;durP1;ratioP1;P1;durP2;ratioP2;P2;SDS_P1;SDS_P2;PMS_P1;PMS_P2;Temp;Humidity;BMP_temperature;BMP_pressure;BME280_temperature;BME280_humidity;BME280_pressure;Samples;Min_cycle;Max_cycle;Signal;HPM_P1;HPM_P2
2022/01/12 00:00:07;;;;;;;90.93;31.70;;;3.40;99.90;;;;;;5023592;28;20097;-75
2022/01/12 00:02:34;;;;;;;100.18;31.25;;;3.50;99.90;;;;;;5021760;28;20595;-75
2022/01/12 00:04:59;;;;;;;89.07;29.55;;;3.50;99.90;;;;;;5053362;28;20055;-74
2022/01/12 00:07:25;;;;;;;107.60;30.73;;;3.50;99.90;;;;;;5058225;28;20475;-76
2022/01/12 00:09:51;;;;;;;116.40;32.42;;;3.50;99.90;;;;;;5051677;28;20055;-76
2022/01/12 00:12:16;;;;;;;113.45;29.50;;;3.50;99.90;;;;;;5024169;28;21039;-76
2022/01/12 00:14:42;;;;;;;125.97;32.88;;;3.00;99.90;;;;;;5005513;28;20107;-75
2022/01/12 00:17:07;;;;;;;137.98;32.78;;;3.50;99.90;;;;;;5009325;28;20041;-76
2022/01/12 00:19:33;;;;;;;117.07;31.60;;;3.60;99.90;;;;;;5038765;28;20737;-75
2022/01/12 00:21:59;;;;;;;105.82;31.35;;;3.80;99.90;;;;;;5011903;28;20046;-76
2022/01/12 00:24:28;;;;;;;125.32;30.73;;;3.50;99.90;;;;;;5019294;28;20131;-76
2022/01/12 00:35:06;;;;;;;117.68;30.70;;;3.60;99.90;;;;;;5015758;28;20049;-76
2022/01/12 00:37:32;;;;;;;157.88;33.20;;;3.60;99.90;;;;;;4997629;28;20967;-76
2022/01/12 00:39:58;;;;;;;118.85;31.83;;;3.60;99.90;;;;;;5027999;28;20103;-76
2022/01/12 00:42:27;;;;;;;97.60;30.20;;;3.60;99.90;;;;;;5022230;28;20494;-75
2022/01/12 00:44:53;;;;;;;103.93;30.85;;;3.60;99.90;;;;;;5050385;28;20242;-76
2022/01/12 00:47:19;;;;;;;149.63;32.20;;;3.60;99.90;;;;;;5010682;28;20053;-74
2022/01/12 00:49:45;;;;;;;148.80;32.63;;;3.60;99.90;;;;;;5018892;28;20045;-75
2022/01/12 00:52:11;;;;;;;102.20;32.40;;;3.60;99.90;;;;;;5026202;28;20060;-75
2022/01/12 00:54:37;;;;;;;122.47;33.05;;;3.60;99.90;;;;;;5022527;28;20045;-75
2022/01/12 00:57:03;;;;;;;115.05;33.25;;;3.60;99.90;;;;;;5021393;28;20148;-75
2022/01/12 00:59:29;;;;;;;98.75;30.77;;;3.60;99.90;;;;;;5021789;28;20159;-75
2022/01/12 01:01:55;;;;;;;149.05;32.42;;;3.60;99.90;;;;;;5006858;28;20043;-75
2022/01/12 01:04:21;;;;;;;145.05;31.77;;;3.70;99.90;;;;;;5004087;28;20049;-75
2022/01/12 01:06:46;;;;;;;116.63;32.78;;;3.60;99.90;;;;;;5012296;28;20045;-75
2022/01/12 01:09:12;;;;;;;157.63;33.88;;;3.70;99.90;;;;;;5013273;28;20097;-75
2022/01/12 01:11:38;;;;;;;148.07;31.73;;;3.60;99.90;;;;;;5009985;28;20080;-76
2022/01/12 01:14:14;;;;;;;157.80;34.05;;;3.60;99.90;;;;;;5023860;28;21208;-75
2022/01/12 01:27:20;;;;;;;98.38;29.85;;;3.70;99.90;;;;;;5017361;28;20060;-75
2022/01/12 01:29:47;;;;;;;125.28;29.45;;;3.70;99.90;;;;;;5024073;28;20053;-74
2022/01/12 01:32:13;;;;;;;190.68;30.77;;;3.70;99.90;;;;;;5019525;28;20585;-74
2022/01/12 01:34:46;;;;;;;105.97;29.25;;;3.70;99.90;;;;;;5002738;28;20038;-75
2022/01/12 01:37:12;;;;;;;143.68;29.83;;;3.80;99.90;;;;;;5020624;28;20037;-74
2022/01/12 01:39:38;;;;;;;137.07;30.40;;;3.70;99.90;;;;;;5017916;28;20037;-75
2022/01/12 01:42:13;;;;;;;134.65;30.45;;;3.70;99.90;;;;;;5007577;28;20551;-75
2022/01/12 01:55:20;;;;;;;105.07;28.42;;;3.80;99.90;;;;;;5021252;28;20384;-75
2022/01/12 01:57:46;;;;;;;111.00;30.45;;;3.80;99.90;;;;;;5001333;28;20049;-75
2022/01/12 02:00:17;;;;;;;116.85;30.45;;;3.80;99.90;;;;;;5019219;28;20446;-75
2022/01/12 02:02:45;;;;;;;105.13;28.38;;;3.80;99.90;;;;;;5019663;28;20045;-75
2022/01/12 02:05:10;;;;;;;134.55;30.30;;;3.80;99.90;;;;;;5000125;28;20125;-75
2022/01/12 02:07:36;;;;;;;140.85;30.08;;;3.80;99.90;;;;;;5018963;28;20175;-75
2022/01/12 02:10:03;;;;;;;130.10;28.38;;;3.80;99.90;;;;;;5047734;28;20446;-75
2022/01/12 02:12:29;;;;;;;112.78;27.52;;;3.80;99.90;;;;;;5019072;28;20042;-75
2022/01/12 02:14:57;;;;;;;125.30;27.40;;;3.90;99.90;;;;;;5005239;28;20049;-75
2022/01/12 02:17:29;;;;;;;101.47;27.48;;;3.90;99.90;;;;;;5022334;28;20068;-75
2022/01/12 02:20:24;;;;;;;96.88;27.67;;;3.90;99.90;;;;;;5008381;28;20051;-75
2022/01/12 02:36:30;;;;;;;133.40;25.05;;;3.90;99.90;;;;;;5015147;28;20095;-75
2022/01/12 02:41:41;;;;;;;134.15;25.13;;;3.80;99.90;;;;;;5019994;28;20065;-75
2022/01/12 02:54:45;;;;;;;73.50;22.38;;;3.80;99.90;;;;;;5020022;28;20154;-75
2022/01/12 02:57:11;;;;;;;70.32;23.20;;;3.80;99.90;;;;;;5005147;28;20046;-75
2022/01/12 02:59:39;;;;;;;66.88;22.23;;;3.80;99.90;;;;;;5035760;28;20039;-75
2022/01/12 03:02:22;;;;;;;65.32;22.30;;;3.80;99.90;;;;;;4996381;28;20104;-75
2022/01/12 03:05:11;;;;;;;61.20;21.10;;;3.70;99.90;;;;;;5002336;28;20084;-75
2022/01/12 03:07:37;;;;;;;70.22;21.52;;;3.70;99.90;;;;;;5021457;28;20518;-75
2022/01/12 03:10:08;;;;;;;81.25;23.35;;;3.70;99.90;;;;;;4998813;28;20438;-75
2022/01/12 03:12:41;;;;;;;65.25;22.50;;;3.80;99.90;;;;;;5025893;28;20414;-75
2022/01/12 03:15:07;;;;;;;58.20;21.50;;;3.80;99.90;;;;;;5007476;28;20406;-75
2022/01/12 03:17:34;;;;;;;67.90;21.70;;;3.70;99.90;;;;;;5004057;28;20048;-74
2022/01/12 03:20:00;;;;;;;63.88;21.30;;;3.70;99.90;;;;;;4994315;28;20087;-75
2022/01/12 03:22:26;;;;;;;61.45;21.73;;;3.70;99.90;;;;;;5003399;28;20468;-75
2022/01/12 03:24:51;;;;;;;66.45;22.48;;;3.60;99.90;;;;;;4989391;28;20037;-75
2022/01/12 03:27:22;;;;;;;70.80;23.90;;;3.60;99.90;;;;;;5003313;28;20494;-75
2022/01/12 03:29:51;;;;;;;55.50;21.13;;;3.50;99.90;;;;;;4988775;28;20747;-75
2022/01/12 03:32:22;;;;;;;62.65;20.05;;;3.40;99.90;;;;;;4989440;28;20419;-75
2022/01/12 03:34:54;;;;;;;54.50;20.60;;;3.40;99.90;;;;;;5006580;28;20110;-75
2022/01/12 03:40:05;;;;;;;56.50;20.50;;;3.20;99.90;;;;;;5006921;28;20050;-75
2022/01/12 03:42:31;;;;;;;47.55;18.67;;;3.20;99.90;;;;;;5009410;28;20050;-75
2022/01/12 03:44:57;;;;;;;60.65;19.42;;;3.10;99.90;;;;;;5012802;28;20072;-75
2022/01/12 03:47:23;;;;;;;52.55;19.38;;;3.10;99.90;;;;;;4998054;28;20128;-75
2022/01/12 03:49:49;;;;;;;51.58;19.02;;;3.00;99.90;;;;;;5011137;28;20585;-75
2022/01/12 03:52:14;;;;;;;53.42;18.90;;;3.00;99.90;;;;;;4987905;28;20042;-75
2022/01/12 03:54:40;;;;;;;47.83;17.48;;;3.00;99.90;;;;;;4992683;28;20779;-75
2022/01/12 03:57:06;;;;;;;46.80;17.83;;;2.90;99.90;;;;;;5005560;28;20124;-75
2022/01/12 03:59:32;;;;;;;44.42;17.33;;;2.80;99.90;;;;;;5008947;28;20046;-75
2022/01/12 04:01:58;;;;;;;46.38;17.98;;;2.80;99.90;;;;;;5039334;28;20111;-75
2022/01/12 04:04:32;;;;;;;42.85;17.70;;;3.50;99.90;;;;;;4996280;28;20045;-75
2022/01/12 04:09:44;;;;;;;47.28;17.65;;;2.60;99.90;;;;;;5005879;28;20041;-75
2022/01/12 04:12:10;;;;;;;46.75;16.48;;;2.60;99.90;;;;;;5010341;28;20118;-75
2022/01/12 04:14:36;;;;;;;39.08;15.75;;;2.50;99.90;;;;;;5020995;28;20084;-75
2022/01/12 04:17:01;;;;;;;33.40;15.50;;;2.50;99.90;;;;;;5028337;28;20045;-75
2022/01/12 04:19:27;;;;;;;35.35;14.57;;;2.40;99.90;;;;;;5007901;28;20042;-75
2022/01/12 04:21:53;;;;;;;35.33;13.80;;;2.40;99.90;;;;;;5024239;28;20049;-75
2022/01/12 04:24:19;;;;;;;33.63;14.63;;;2.40;99.90;;;;;;5026718;28;20041;-75
2022/01/12 04:26:45;;;;;;;34.35;14.18;;;2.30;99.90;;;;;;5021081;28;20045;-75
2022/01/12 04:29:11;;;;;;;30.40;12.35;;;2.30;99.90;;;;;;5016941;28;20045;-75
2022/01/12 04:31:38;;;;;;;30.70;11.98;;;2.20;99.90;;;;;;5021614;28;20045;-74
2022/01/12 04:34:08;;;;;;;26.08;11.95;;;2.10;99.90;;;;;;5001901;28;20051;-75
2022/01/12 04:36:34;;;;;;;25.83;12.30;;;2.10;99.90;;;;;;5024766;28;20379;-75
2022/01/12 04:39:00;;;;;;;26.77;12.18;;;2.10;99.90;;;;;;5024746;28;20048;-74
2022/01/12 04:41:26;;;;;;;23.90;11.30;;;2.00;99.90;;;;;;5026729;28;20060;-74
2022/01/12 04:43:53;;;;;;;23.42;10.88;;;2.00;99.90;;;;;;5021236;28;20667;-74
2022/01/12 04:46:34;;;;;;;23.52;11.25;;;1.90;99.90;;;;;;5037400;28;20505;-75
2022/01/12 04:51:35;;;;;;;22.75;10.77;;;1.90;99.90;;;;;;5015076;28;20053;-75
2022/01/12 04:54:02;;;;;;;29.83;11.35;;;1.80;99.90;;;;;;5029178;28;20032;-75
2022/01/12 04:56:29;;;;;;;19.65;10.50;;;1.80;99.90;;;;;;5028193;28;20052;-74
2022/01/12 04:58:55;;;;;;;19.35;9.90;;;1.70;99.90;;;;;;5005953;28;20046;-75
2022/01/12 05:01:24;;;;;;;21.50;10.63;;;1.70;99.90;;;;;;5005530;28;20059;-75
2022/01/12 05:06:53;;;;;;;17.58;9.48;;;1.60;99.90;;;;;;5044374;28;20068;-74
2022/01/12 05:09:49;;;;;;;21.77;9.10;;;1.60;99.90;;;;;;5036418;28;20054;-75
2022/01/12 05:15:08;;;;;;;16.48;8.73;;;1.50;99.90;;;;;;5020316;28;20137;-75
2022/01/12 05:17:34;;;;;;;16.67;8.82;;;1.40;99.90;;;;;;5020943;28;20042;-75
2022/01/12 05:20:01;;;;;;;18.58;9.30;;;1.40;99.90;;;;;;5020747;28;20049;-75
2022/01/12 05:22:26;;;;;;;17.70;8.70;;;1.30;99.90;;;;;;5021655;28;20587;-75
2022/01/12 05:24:52;;;;;;;19.15;9.30;;;1.30;99.90;;;;;;5004569;28;20037;-75
2022/01/12 05:27:18;;;;;;;16.13;8.73;;;1.30;99.90;;;;;;5021641;28;20674;-75
2022/01/12 05:29:43;;;;;;;19.67;8.75;;;1.20;99.90;;;;;;5036115;28;20056;-75
2022/01/12 05:32:10;;;;;;;16.15;8.57;;;1.20;99.90;;;;;;5005172;28;20045;-75
2022/01/12 05:34:38;;;;;;;19.45;9.15;;;1.20;99.90;;;;;;5007417;28;20057;-75
2022/01/12 05:37:04;;;;;;;19.92;8.65;;;1.10;99.90;;;;;;5021216;28;20045;-74
2022/01/12 05:39:29;;;;;;;17.30;8.40;;;1.00;99.90;;;;;;5024510;28;20052;-75
2022/01/12 05:41:55;;;;;;;17.23;8.68;;;1.00;99.90;;;;;;5003489;28;20043;-74
2022/01/12 05:44:23;;;;;;;18.45;8.70;;;0.90;99.90;;;;;;5006320;28;20048;-74
2022/01/12 05:46:48;;;;;;;18.17;8.70;;;0.90;99.90;;;;;;5005035;28;20049;-75
2022/01/12 05:51:58;;;;;;;17.40;8.07;;;0.90;99.90;;;;;;5016127;28;20533;-74
2022/01/12 05:54:24;;;;;;;27.17;9.48;;;0.90;99.90;;;;;;5016992;28;20132;-75
2022/01/12 05:56:51;;;;;;;19.95;9.13;;;0.90;99.90;;;;;;5003309;28;20452;-75
2022/01/12 05:59:18;;;;;;;31.58;10.02;;;0.90;99.90;;;;;;5014402;28;20058;-74
2022/01/12 06:01:43;;;;;;;25.70;10.00;;;0.90;99.90;;;;;;5014470;28;20413;-74
2022/01/12 06:04:09;;;;;;;20.77;9.63;;;0.80;99.90;;;;;;5005719;28;20033;-75
2022/01/12 06:06:35;;;;;;;19.50;8.98;;;0.80;99.90;;;;;;5012076;28;20167;-75
2022/01/12 06:09:00;;;;;;;19.52;9.40;;;0.80;99.90;;;;;;5014051;28;20060;-75
2022/01/12 06:11:26;;;;;;;20.27;9.43;;;0.80;99.90;;;;;;5022610;28;20049;-75
2022/01/12 06:13:52;;;;;;;19.20;8.60;;;0.80;99.90;;;;;;5005239;28;21698;-74
2022/01/12 06:16:18;;;;;;;24.75;8.73;;;0.80;99.90;;;;;;5025883;28;20049;-75
2022/01/12 06:18:45;;;;;;;18.40;8.38;;;0.80;99.90;;;;;;5002677;28;20524;-75
2022/01/12 06:21:10;;;;;;;18.02;8.18;;;0.90;99.90;;;;;;5011576;28;20067;-75
2022/01/12 06:23:36;;;;;;;21.00;8.38;;;0.80;99.90;;;;;;5026416;28;20037;-75
2022/01/12 06:26:02;;;;;;;27.23;8.65;;;0.90;99.90;;;;;;5024941;28;20033;-75
2022/01/12 06:31:13;;;;;;;16.45;7.97;;;0.90;99.90;;;;;;5027513;28;20053;-74
2022/01/12 06:33:41;;;;;;;23.85;8.70;;;0.90;99.90;;;;;;5001944;28;20449;-75
2022/01/12 06:36:08;;;;;;;14.70;8.10;;;0.80;99.90;;;;;;5010843;28;20509;-75
2022/01/12 06:38:34;;;;;;;12.80;7.57;;;0.90;99.90;;;;;;5002796;28;20047;-75
2022/01/12 06:40:59;;;;;;;14.60;7.70;;;0.90;99.90;;;;;;5020024;28;20037;-75
2022/01/12 06:43:27;;;;;;;13.02;7.65;;;0.70;99.90;;;;;;5019280;28;20130;-75
2022/01/12 06:45:54;;;;;;;14.30;7.55;;;0.90;99.90;;;;;;5001713;28;20036;-75
2022/01/12 06:48:19;;;;;;;12.93;6.93;;;0.90;99.90;;;;;;5004355;28;20143;-75
2022/01/12 06:50:45;;;;;;;11.65;6.80;;;0.90;99.90;;;;;;5006986;28;20048;-75
2022/01/12 06:53:11;;;;;;;12.48;6.68;;;0.90;99.90;;;;;;5019417;28;20127;-75
2022/01/12 06:55:36;;;;;;;15.43;6.55;;;0.90;99.90;;;;;;5011109;28;20797;-75
2022/01/12 06:58:02;;;;;;;12.35;6.47;;;0.90;99.90;;;;;;4994594;28;20043;-75
2022/01/12 07:00:28;;;;;;;10.60;5.90;;;0.90;99.90;;;;;;5012350;28;20210;-75
2022/01/12 07:02:54;;;;;;;9.77;5.88;;;0.90;99.90;;;;;;5024409;28;20048;-75
2022/01/12 07:05:19;;;;;;;12.30;6.70;;;0.90;99.90;;;;;;5025915;28;20045;-75
2022/01/12 07:07:45;;;;;;;11.35;6.90;;;0.90;99.90;;;;;;5011264;28;20106;-75
2022/01/12 07:10:11;;;;;;;12.40;6.32;;;0.90;99.90;;;;;;5010968;28;20048;-75
2022/01/12 07:12:36;;;;;;;15.25;6.15;;;0.90;99.90;;;;;;5012272;28;20045;-74
2022/01/12 07:15:03;;;;;;;11.00;6.10;;;0.90;99.90;;;;;;5010429;28;20053;-75
2022/01/12 07:17:28;;;;;;;12.25;6.88;;;0.90;99.90;;;;;;5023545;28;20053;-74
2022/01/12 07:19:54;;;;;;;11.05;6.25;;;0.80;99.90;;;;;;5018025;28;20045;-75
2022/01/12 07:22:20;;;;;;;27.63;6.65;;;0.80;99.90;;;;;;5013185;28;20526;-75
2022/01/12 07:24:45;;;;;;;13.77;6.00;;;0.80;99.90;;;;;;4998477;28;20053;-75
2022/01/12 07:27:11;;;;;;;11.13;6.05;;;0.80;99.90;;;;;;5003584;28;20160;-75
2022/01/12 07:29:36;;;;;;;45.92;7.38;;;0.80;99.90;;;;;;5034972;28;20045;-74
2022/01/12 07:32:02;;;;;;;11.43;5.90;;;0.80;99.90;;;;;;5011889;28;20095;-74
2022/01/12 07:34:28;;;;;;;42.03;7.05;;;0.80;99.90;;;;;;4994339;28;20565;-77
2022/01/12 07:36:54;;;;;;;15.50;5.88;;;0.80;99.90;;;;;;5022419;28;20029;-75
2022/01/12 07:39:19;;;;;;;23.10;5.70;;;0.70;99.90;;;;;;5001982;28;20084;-75
2022/01/12 07:41:45;;;;;;;12.85;5.35;;;0.70;99.90;;;;;;5016408;28;20041;-76
2022/01/12 07:44:11;;;;;;;10.82;5.80;;;0.70;99.90;;;;;;5014930;28;20044;-75
2022/01/12 07:46:36;;;;;;;29.38;6.50;;;0.70;99.90;;;;;;5013372;28;20046;-75
2022/01/12 07:49:05;;;;;;;49.88;7.53;;;0.70;99.90;;;;;;5013242;28;20075;-75
2022/01/12 07:51:31;;;;;;;66.55;7.72;;;0.70;99.90;;;;;;5013397;28;20299;-75
2022/01/12 07:53:56;;;;;;;25.67;6.75;;;0.80;99.90;;;;;;5004446;28;20041;-76
2022/01/12 07:56:22;;;;;;;13.38;6.07;;;0.70;99.90;;;;;;5016812;28;20041;-75
2022/01/12 07:58:47;;;;;;;19.45;6.05;;;0.70;99.90;;;;;;5014790;28;20640;-75
2022/01/12 08:01:13;;;;;;;9.20;5.35;;;0.70;99.90;;;;;;5016501;28;20547;-76
2022/01/12 08:03:39;;;;;;;15.38;5.60;;;0.70;99.90;;;;;;5012307;28;20450;-76
2022/01/12 08:06:04;;;;;;;12.05;5.25;;;0.70;99.90;;;;;;5018249;28;20085;-75
2022/01/12 08:08:30;;;;;;;10.13;5.07;;;0.70;99.90;;;;;;5024344;28;20396;-75
2022/01/12 08:10:56;;;;;;;10.75;5.47;;;0.70;99.90;;;;;;5005385;28;20037;-75
2022/01/12 08:13:21;;;;;;;10.82;4.88;;;0.80;99.90;;;;;;5000654;28;20143;-75
2022/01/12 08:15:47;;;;;;;9.25;5.60;;;0.80;99.90;;;;;;5000388;28;20049;-76
2022/01/12 08:18:13;;;;;;;12.13;5.63;;;0.80;99.90;;;;;;5023800;28;20155;-75
2022/01/12 08:20:38;;;;;;;9.65;5.10;;;0.80;99.90;;;;;;4987162;28;20081;-75
2022/01/12 08:23:04;;;;;;;8.48;4.78;;;0.80;99.90;;;;;;5038708;28;20412;-75
2022/01/12 08:25:30;;;;;;;14.07;5.68;;;0.90;99.90;;;;;;5022424;28;20053;-74
2022/01/12 08:27:55;;;;;;;11.70;5.85;;;0.90;99.90;;;;;;4986914;28;20815;-75
2022/01/12 08:30:28;;;;;;;13.90;6.07;;;1.60;99.90;;;;;;4996126;28;20052;-75
2022/01/12 08:32:54;;;;;;;9.88;5.60;;;0.90;99.90;;;;;;5010547;28;20045;-75
2022/01/12 08:35:20;;;;;;;9.60;5.28;;;1.00;99.90;;;;;;5031293;28;20056;-75
2022/01/12 08:37:46;;;;;;;11.43;5.28;;;1.00;99.90;;;;;;4981834;28;20045;-75
2022/01/12 08:40:14;;;;;;;18.55;5.43;;;1.00;99.90;;;;;;5012264;28;20104;-75
2022/01/12 08:42:40;;;;;;;9.90;5.45;;;1.00;99.90;;;;;;5039542;28;20044;-72
2022/01/12 08:45:06;;;;;;;11.30;5.07;;;1.00;99.90;;;;;;4985889;28;20053;-72
2022/01/12 08:47:32;;;;;;;11.60;5.53;;;1.10;99.90;;;;;;5000328;28;20057;-71
2022/01/12 08:49:58;;;;;;;29.30;6.60;;;1.10;99.90;;;;;;5021941;28;20059;-71
2022/01/12 08:52:27;;;;;;;32.22;6.18;;;1.10;99.90;;;;;;5041901;28;20056;-72
2022/01/12 08:54:53;;;;;;;15.25;5.22;;;1.10;99.90;;;;;;5007683;28;20110;-71
2022/01/12 08:57:18;;;;;;;11.90;4.97;;;1.10;99.90;;;;;;5008430;28;20144;-72
2022/01/12 08:59:44;;;;;;;13.38;5.10;;;1.20;99.90;;;;;;5006253;28;20060;-72
2022/01/12 09:02:13;;;;;;;8.77;4.43;;;1.20;99.90;;;;;;5027618;28;20095;-72
2022/01/12 09:04:39;;;;;;;22.98;5.22;;;1.30;99.90;;;;;;5004120;28;20110;-71
2022/01/12 09:07:05;;;;;;;9.40;4.90;;;1.30;99.90;;;;;;5003998;28;20438;-72
2022/01/12 09:09:30;;;;;;;32.05;5.55;;;1.30;99.90;;;;;;5006745;28;20057;-72
2022/01/12 09:11:57;;;;;;;8.70;4.30;;;1.40;99.90;;;;;;4994907;28;20124;-71
2022/01/12 09:14:22;;;;;;;9.93;4.60;;;1.40;99.90;;;;;;5023025;28;20049;-72
2022/01/12 09:16:56;;;;;;;8.50;4.53;;;1.40;99.90;;;;;;5024564;28;20048;-71
2022/01/12 09:19:23;;;;;;;14.18;4.25;;;1.50;99.90;;;;;;5023279;28;20056;-72
2022/01/12 09:21:48;;;;;;;27.90;5.10;;;1.50;99.90;;;;;;5018109;28;20536;-72
2022/01/12 09:24:14;;;;;;;31.55;5.03;;;1.50;99.90;;;;;;5020942;28;20340;-72
2022/01/12 09:26:41;;;;;;;28.15;4.78;;;1.60;99.90;;;;;;5025054;28;20056;-72
2022/01/12 09:29:06;;;;;;;13.75;4.90;;;1.60;99.90;;;;;;5022834;28;20482;-71
2022/01/12 09:31:33;;;;;;;19.45;5.40;;;1.60;99.90;;;;;;5010418;28;20041;-71
2022/01/12 09:33:59;;;;;;;15.35;4.72;;;1.70;99.90;;;;;;5005080;28;20033;-71
2022/01/12 09:36:25;;;;;;;29.77;5.30;;;1.70;99.90;;;;;;5015587;28;20418;-71
2022/01/12 09:38:50;;;;;;;15.57;4.88;;;1.80;99.90;;;;;;5007062;28;20064;-72
2022/01/12 09:41:16;;;;;;;25.05;4.60;;;1.80;99.90;;;;;;5019086;28;21280;-71
2022/01/12 09:43:43;;;;;;;19.58;4.60;;;1.90;99.90;;;;;;5014138;28;20111;-72
2022/01/12 09:46:12;;;;;;;39.08;5.32;;;2.70;99.90;;;;;;5015105;28;20767;-71
2022/01/12 09:48:38;;;;;;;27.17;4.97;;;1.90;99.90;;;;;;5007595;28;20052;-72
2022/01/12 09:51:06;;;;;;;23.05;4.80;;;2.00;99.90;;;;;;5026265;28;20063;-72
2022/01/12 09:53:33;;;;;;;35.60;4.85;;;2.10;99.90;;;;;;5008378;28;20051;-71
2022/01/12 09:55:59;;;;;;;14.07;4.05;;;2.10;99.90;;;;;;5014452;28;20041;-72
2022/01/12 09:58:33;;;;;;;58.70;6.38;;;2.20;99.90;;;;;;4994514;28;20044;-72
2022/01/12 10:01:01;;;;;;;63.00;5.88;;;2.20;99.90;;;;;;5015215;28;20049;-71
2022/01/12 10:03:27;;;;;;;29.52;4.80;;;2.30;99.90;;;;;;5025875;28;20091;-72
2022/01/12 10:05:54;;;;;;;52.47;5.30;;;2.40;99.90;;;;;;5006902;28;20159;-71
2022/01/12 10:08:20;;;;;;;77.43;6.07;;;2.40;99.90;;;;;;5016481;28;20079;-71
2022/01/12 10:11:05;;;;;;;66.43;6.20;;;2.50;99.90;;;;;;5037064;28;20113;-72
2022/01/12 10:13:32;;;;;;;25.33;4.75;;;2.60;99.90;;;;;;5009914;28;20603;-72
2022/01/12 10:16:09;;;;;;;74.88;7.57;;;2.60;99.90;;;;;;5001339;28;20484;-71
2022/01/12 10:18:44;;;;;;;42.58;6.57;;;2.70;99.90;;;;;;5017443;28;20041;-72
2022/01/12 10:21:10;;;;;;;46.78;5.60;;;2.80;99.90;;;;;;5004827;28;20042;-71
2022/01/12 10:23:38;;;;;;;26.02;5.30;;;2.80;99.90;;;;;;5019711;28;20356;-72
2022/01/12 10:26:04;;;;;;;44.50;6.40;;;2.90;99.90;;;;;;5004500;28;20100;-71
2022/01/12 10:28:30;;;;;;;26.42;5.18;;;3.00;99.90;;;;;;5053660;28;20076;-72
2022/01/12 10:31:01;;;;;;;33.03;5.25;;;3.00;99.90;;;;;;5023383;28;20120;-72
2022/01/12 10:33:34;;;;;;;48.60;5.38;;;3.00;99.90;;;;;;5035823;28;20057;-72
2022/01/12 10:36:02;;;;;;;58.03;6.57;;;3.00;99.90;;;;;;5021285;28;20455;-72
2022/01/12 10:38:28;;;;;;;34.17;5.78;;;3.10;99.90;;;;;;5004715;28;20048;-71
2022/01/12 10:40:58;;;;;;;58.20;5.40;;;3.10;99.90;;;;;;5053095;28;20076;-71
2022/01/12 10:43:27;;;;;;;32.42;5.07;;;3.20;99.90;;;;;;5020151;28;20501;-71
2022/01/12 10:45:53;;;;;;;39.28;5.82;;;3.20;99.90;;;;;;5004014;28;20102;-72
2022/01/12 10:48:19;;;;;;;28.48;5.30;;;3.30;99.90;;;;;;5006212;28;20045;-71
2022/01/12 10:50:58;;;;;;;40.05;6.00;;;3.40;99.90;;;;;;5024591;28;20064;-71
2022/01/12 10:53:33;;;;;;;32.70;5.38;;;4.30;99.90;;;;;;5023807;28;20067;-71
2022/01/12 10:56:16;;;;;;;28.83;6.30;;;3.50;99.90;;;;;;5006380;28;20520;-71
2022/01/12 10:58:47;;;;;;;41.20;6.40;;;3.60;99.90;;;;;;5036003;28;20394;-71
2022/01/12 11:01:16;;;;;;;54.63;6.43;;;3.70;99.90;;;;;;5021422;28;20132;-71
2022/01/12 11:03:42;;;;;;;51.08;7.22;;;3.80;99.90;;;;;;5022412;28;20106;-72
2022/01/12 11:06:09;;;;;;;37.70;6.53;;;3.90;99.90;;;;;;5004800;28;20053;-71
2022/01/12 11:08:36;;;;;;;23.92;5.97;;;3.90;99.90;;;;;;5015354;28;20613;-72
2022/01/12 11:11:02;;;;;;;38.83;7.22;;;4.00;99.90;;;;;;5003154;28;20457;-71
2022/01/12 11:13:29;;;;;;;25.55;5.68;;;4.10;99.90;;;;;;5002747;28;20042;-72
2022/01/12 11:15:56;;;;;;;29.67;6.45;;;4.20;99.90;;;;;;5021846;28;20075;-71
2022/01/12 11:18:28;;;;;;;28.63;6.65;;;4.20;99.90;;;;;;5022556;28;20048;-72
2022/01/12 11:21:01;;;;;;;29.70;7.38;;;4.30;99.90;;;;;;5021747;28;20045;-71
2022/01/12 11:23:39;;;;;;;46.80;7.82;;;4.40;99.90;;;;;;5020948;28;20139;-72
2022/01/12 11:26:19;;;;;;;39.78;8.38;;;4.40;99.90;;;;;;5019427;28;20037;-71
2022/01/12 11:28:47;;;;;;;40.50;8.13;;;4.50;99.90;;;;;;5002656;28;20041;-72
2022/01/12 11:31:18;;;;;;;27.42;6.72;;;4.60;99.90;;;;;;5011967;28;20498;-72
2022/01/12 11:33:45;;;;;;;30.60;7.53;;;4.60;99.90;;;;;;5015031;28;20045;-71
2022/01/12 11:36:24;;;;;;;28.65;7.20;;;4.70;99.90;;;;;;4999408;28;20387;-71
2022/01/12 11:39:00;;;;;;;30.35;6.40;;;4.80;99.90;;;;;;5020586;28;20053;-72
2022/01/12 11:41:31;;;;;;;26.48;7.10;;;4.80;99.90;;;;;;5012931;28;20045;-72
2022/01/12 11:44:05;;;;;;;50.20;8.05;;;4.80;99.90;;;;;;5043627;28;20386;-71
2022/01/12 11:46:46;;;;;;;29.73;7.38;;;4.80;99.90;;;;;;4994499;28;20510;-71
2022/01/12 11:49:53;;;;;;;27.23;6.90;;;4.80;99.90;;;;;;5013812;28;20600;-72
2022/01/12 11:52:22;;;;;;;42.25;8.30;;;4.80;99.90;;;;;;5011061;28;21259;-72
2022/01/12 11:54:52;;;;;;;41.88;9.80;;;4.80;99.90;;;;;;5029724;28;20056;-72
2022/01/12 11:57:32;;;;;;;38.65;8.02;;;4.80;99.90;;;;;;5014716;28;20279;-72
2022/01/12 12:00:03;;;;;;;33.00;8.27;;;4.80;99.90;;;;;;5046542;28;20045;-72
2022/01/12 12:02:36;;;;;;;30.05;8.88;;;4.80;99.90;;;;;;5034965;28;20114;-72
2022/01/12 12:05:09;;;;;;;35.22;8.63;;;4.80;99.90;;;;;;5020378;28;20410;-71
2022/01/12 12:07:49;;;;;;;37.85;9.95;;;4.80;99.90;;;;;;5015824;28;20041;-72
2022/01/12 12:10:19;;;;;;;36.70;9.65;;;4.90;99.90;;;;;;5013698;28;20049;-72
2022/01/12 12:12:47;;;;;;;39.28;9.45;;;4.90;99.90;;;;;;5029721;28;20049;-72
2022/01/12 12:15:14;;;;;;;51.25;11.80;;;5.00;99.90;;;;;;5003564;28;20064;-72
2022/01/12 12:17:41;;;;;;;44.45;10.07;;;5.00;99.90;;;;;;5011368;28;20136;-72
2022/01/12 12:20:11;;;;;;;58.40;11.13;;;5.10;99.90;;;;;;5037272;28;20052;-72
2022/01/12 12:22:44;;;;;;;40.97;10.00;;;5.10;99.90;;;;;;4977511;28;20041;-72
2022/01/12 12:25:27;;;;;;;47.85;10.85;;;5.10;99.90;;;;;;5011686;28;20053;-72
2022/01/12 12:28:08;;;;;;;33.72;10.77;;;5.20;99.90;;;;;;5001921;28;20091;-72
2022/01/12 12:30:35;;;;;;;;;;;5.20;99.90;;;;;;4988893;28;20131;-72
2022/01/12 12:33:12;;;;;;;45.60;10.88;;;5.30;99.90;;;;;;5039409;28;19928;-72
2022/01/12 12:35:40;;;;;;;37.17;10.77;;;5.50;99.90;;;;;;5028306;28;20049;-72
2022/01/12 12:38:11;;;;;;;49.17;11.45;;;5.30;99.90;;;;;;5013926;28;20512;-72
2022/01/12 12:40:39;;;;;;;38.10;10.93;;;5.30;99.90;;;;;;5020627;28;20052;-72
2022/01/12 12:43:09;;;;;;;49.08;11.32;;;5.40;99.90;;;;;;4992019;28;20128;-72
2022/01/12 12:45:38;;;;;;;41.05;10.57;;;5.30;99.90;;;;;;5010928;28;20045;-72
2022/01/12 12:48:06;;;;;;;30.85;10.40;;;5.30;99.90;;;;;;5006661;28;20092;-72
2022/01/12 12:50:32;;;;;;;55.60;12.43;;;5.30;99.90;;;;;;5002296;28;20569;-72
2022/01/12 12:52:59;;;;;;;36.38;11.13;;;5.30;99.90;;;;;;4987481;28;20136;-72
2022/01/12 12:55:25;;;;;;;39.08;11.50;;;5.30;99.90;;;;;;4987338;28;20053;-72
2022/01/12 12:57:53;;;;;;;31.20;10.88;;;5.40;99.90;;;;;;4996141;28;20100;-72
2022/01/12 13:00:22;;;;;;;41.85;12.15;;;5.30;99.90;;;;;;5042220;28;20041;-72
2022/01/12 13:02:51;;;;;;;42.25;11.48;;;5.40;99.90;;;;;;5025130;28;20045;-71
2022/01/12 13:05:23;;;;;;;35.92;11.60;;;5.40;99.90;;;;;;5030878;28;20106;-72
2022/01/12 13:07:50;;;;;;;50.05;12.00;;;5.40;99.90;;;;;;4990016;28;20049;-72
2022/01/12 13:10:23;;;;;;;43.67;12.52;;;5.40;99.90;;;;;;5026796;28;20041;-72
2022/01/12 13:12:58;;;;;;;34.63;11.50;;;5.40;99.90;;;;;;5005558;28;20825;-72
2022/01/12 13:15:32;;;;;;;36.75;11.85;;;5.50;99.90;;;;;;4988859;28;20049;-72
2022/01/12 13:18:05;;;;;;;33.83;11.82;;;5.50;99.90;;;;;;5026186;28;20045;-72
2022/01/12 13:23:31;;;;;;;36.97;11.35;;;5.60;99.90;;;;;;5010675;28;20557;-72
2022/01/12 13:26:01;;;;;;;30.73;10.55;;;5.60;99.90;;;;;;5015044;28;20057;-72
2022/01/12 13:28:27;;;;;;;34.72;10.63;;;5.70;99.90;;;;;;5011728;28;20596;-72
2022/01/12 13:30:59;;;;;;;27.70;9.27;;;5.70;99.90;;;;;;5009043;28;20048;-72
2022/01/12 13:33:30;;;;;;;34.63;9.82;;;5.60;99.90;;;;;;5018480;28;20100;-72
2022/01/12 13:35:58;;;;;;;33.53;9.77;;;5.60;99.90;;;;;;4997655;28;20633;-71
2022/01/12 13:38:32;;;;;;;28.55;10.02;;;5.60;99.90;;;;;;5017894;28;20126;-72
2022/01/12 13:41:10;;;;;;;27.67;10.00;;;5.50;99.90;;;;;;5042265;28;20046;-72
2022/01/12 13:43:39;;;;;;;30.33;9.50;;;5.50;99.90;;;;;;5003097;28;20154;-71
2022/01/12 13:46:15;;;;;;;26.55;9.60;;;5.40;99.90;;;;;;5003021;28;20061;-72
2022/01/12 13:49:09;;;;;;;29.88;9.02;;;5.40;99.90;;;;;;5018826;28;20069;-71
2022/01/12 13:51:38;;;;;;;32.72;10.32;;;5.30;99.90;;;;;;5006491;28;20743;-72
2022/01/12 13:54:14;;;;;;;36.05;10.13;;;5.40;99.90;;;;;;5020394;28;20060;-71
2022/01/12 13:56:43;;;;;;;38.33;10.10;;;5.30;99.90;;;;;;5011562;28;20189;-72
2022/01/12 13:59:10;;;;;;;35.67;10.57;;;5.30;99.90;;;;;;5001844;28;20052;-72
2022/01/12 14:01:41;;;;;;;28.27;11.65;;;5.20;99.90;;;;;;5050548;28;20105;-72
2022/01/12 14:04:13;;;;;;;33.35;9.85;;;5.20;99.90;;;;;;5000791;28;20052;-72
2022/01/12 14:06:41;;;;;;;26.55;11.02;;;5.20;99.90;;;;;;5007179;28;20135;-72